createdAt,value
2023-01-29T00:12:16.069Z,77.50
2023-01-29T00:14:55.158Z,77.40
2023-01-29T00:17:26.041Z,77.40
2023-01-29T00:19:59.234Z,77.30
2023-01-29T00:22:31.140Z,77.30
2023-01-29T00:25:01.491Z,77.30
2023-01-29T00:27:35.863Z,77.30
2023-01-29T08:05:54.399Z,76.90
2023-01-29T08:08:22.104Z,76.70
2023-01-29T08:10:49.269Z,76.70
2023-01-29T08:13:16.245Z,76.80
2023-01-29T08:15:45.494Z,76.80
2023-01-29T08:18:13.786Z,76.90
2023-01-29T08:20:46.057Z,77.00
2023-01-29T08:23:39.387Z,77.00
2023-01-29T08:26:09.112Z,77.00
2023-01-29T08:28:38.671Z,76.90
2023-01-29T08:31:14.430Z,77.10
2023-01-29T08:33:41.673Z,77.00
2023-01-29T08:36:09.652Z,77.00
2023-01-29T08:38:38.016Z,77.10
2023-01-29T08:41:05.876Z,76.80
2023-01-29T08:43:33.237Z,76.90
2023-01-29T08:46:00.226Z,76.90
2023-01-29T08:48:27.481Z,77.00
2023-01-29T08:50:58.574Z,76.90
2023-01-29T08:57:31.890Z,77.10
2023-01-29T09:00:13.781Z,76.80
2023-01-29T09:02:43.312Z,77.00
2023-01-29T09:05:10.724Z,77.10
2023-01-29T09:07:37.770Z,77.00
2023-01-29T09:34:17.507Z,77.10
2023-01-29T09:36:44.753Z,77.00
2023-01-29T09:39:11.773Z,77.10
2023-01-29T09:41:51.717Z,77.00
2023-01-29T09:44:37.545Z,77.10
2023-01-29T10:01:53.001Z,77.00
2023-01-29T10:04:40.299Z,76.80
2023-01-29T10:13:19.028Z,77.00
2023-01-29T10:16:16.463Z,76.90
2023-01-29T10:19:07.175Z,77.00
2023-01-29T10:22:00.265Z,77.00
2023-01-29T10:25:10.994Z,77.00
2023-01-29T14:00:52.334Z,79.50
2023-01-29T14:03:39.937Z,79.60
2023-01-29T14:10:27.143Z,79.60
2023-01-29T14:13:24.095Z,79.50
2023-01-29T14:16:27.550Z,79.60
2023-01-29T14:19:01.448Z,79.50
2023-01-29T14:30:03.156Z,79.50
2023-01-29T14:32:34.709Z,79.50
2023-01-29T14:35:21.309Z,79.40
2023-01-29T14:37:55.294Z,79.50
2023-01-29T14:40:31.233Z,79.50
2023-01-29T14:43:23.752Z,79.40
2023-01-29T14:46:06.793Z,79.40
2023-01-29T14:48:58.319Z,79.20
2023-01-29T14:51:36.763Z,79.10
2023-01-29T15:09:42.813Z,79.40
2023-01-29T15:25:49.714Z,79.20
2023-01-29T15:28:47.110Z,79.20
2023-01-29T15:34:41.146Z,79.30
2023-01-29T18:43:04.613Z,79.70
2023-01-29T18:45:32.067Z,79.50
2023-01-29T18:54:02.858Z,79.70
2023-01-29T18:56:36.704Z,79.60
2023-01-29T18:59:05.717Z,79.50
2023-01-29T19:01:33.913Z,79.50
2023-01-29T19:04:01.999Z,79.50
2023-01-29T19:06:29.164Z,79.50
2023-01-29T19:08:56.292Z,79.50
2023-01-29T19:11:23.324Z,79.50
2023-01-29T19:13:51.036Z,79.50
2023-01-29T19:22:02.409Z,79.60
2023-01-29T19:24:30.008Z,79.50
2023-01-29T19:26:57.415Z,79.60
2023-01-29T19:29:27.744Z,79.50
2023-01-29T19:31:54.959Z,79.50
2023-01-29T20:08:47.073Z,79.50
2023-01-29T20:11:25.654Z,79.50
2023-01-29T20:13:53.651Z,79.50
2023-01-29T20:16:22.378Z,79.40
2023-01-29T20:21:49.291Z,79.50
2023-01-29T20:24:16.885Z,79.40
2023-01-29T20:26:44.859Z,79.30
2023-01-29T20:35:10.499Z,79.40
2023-01-29T20:37:37.820Z,79.40
2023-01-29T20:40:06.714Z,79.40
2023-01-29T20:42:34.406Z,79.40
2023-01-29T20:45:04.414Z,79.40
2023-01-29T22:07:49.940Z,78.80
2023-01-29T22:19:50.168Z,78.70
2023-01-29T22:22:18.385Z,78.70
2023-01-29T22:24:46.809Z,78.80
2023-01-29T22:27:15.545Z,78.70
2023-01-29T22:29:42.840Z,78.70
2023-01-29T22:32:11.431Z,78.60
2023-01-29T22:34:40.256Z,78.70
2023-01-29T22:37:07.883Z,78.70
2023-01-29T22:39:34.929Z,78.70
2023-01-29T22:42:02.060Z,78.70
2023-01-29T22:44:36.622Z,78.60
2023-01-29T22:53:02.812Z,78.70
2023-01-29T22:55:29.918Z,78.60
2023-01-29T22:58:05.788Z,78.60
2023-01-29T23:00:33.024Z,78.60
2023-01-29T23:03:09.973Z,78.40
2023-01-29T23:05:36.940Z,78.30
2023-01-29T23:08:03.888Z,78.30
2023-01-29T23:10:31.063Z,78.30
2023-01-29T23:13:09.438Z,78.30
2023-01-29T23:15:38.592Z,78.20
2023-01-29T23:18:07.927Z,78.20
2023-01-29T23:20:35.447Z,78.40
2023-01-29T23:23:02.521Z,78.30
2023-01-29T23:25:48.319Z,78.30
2023-01-29T23:30:56.410Z,78.20
2023-01-29T23:33:23.586Z,78.20
2023-01-29T23:35:50.534Z,78.20
2023-01-29T23:38:17.511Z,78.10
2023-01-29T23:41:09.165Z,78.20
2023-01-29T23:47:16.584Z,77.90
2023-01-29T23:50:15.641Z,78.00
2023-01-29T23:53:36.257Z,78.20
2023-01-29T23:59:49.266Z,77.80
